Startpagina
METAR-TAF:

METAR-TAF

Vliegvelden :

Otjiwarongo, Namibië

breedte: 20-25-50S, lengte: 16-39-45E, hoogte: 1475 m

Actueel weer

Dit bericht is 16 uur en het 38 minuten geleden gemaakt, om 10:00 UTC
Wind 6 kt uit het oosten
Temperatuur 32°C
Vochtigheid 26%
Druk 1020 hPa

METAR: FYOW 281000Z AUTO 09006KT //// // ////// 32/10 Q1020

Tijdstip: 04:38 (02:38 UTC)


TAF: ontbreekt

Waarnemingen en weersverwachtingen van meer dan 4000 vliegvelden (METAR en TAF).

De beschikbare stations zijn de gele en rode punten op de kaart.

Ga met uw muis naar het station om de naam te zien.

Klik dan om waarnemingen en weersverwachtingen te zien.

kaart wijzigen: klik op de groene knoppen met een zwart kruis om in te zoomen, op de groene knop met een streepje om uit te zoomen of op de groene pijlen voor aangrenzende kaarten.


METAR-TAF: